createdAt,value
2017-07-20T00:00:59.781Z,84.60
2017-07-20T00:03:26.773Z,84.20
2017-07-20T00:05:52.992Z,84.20
2017-07-20T00:08:19.237Z,84.20
2017-07-20T00:10:45.597Z,84.20
2017-07-20T00:13:11.828Z,84.40
2017-07-20T00:15:38.080Z,84.20
2017-07-20T00:18:04.368Z,84.80
2017-07-20T00:20:31.346Z,84.10
2017-07-20T00:22:57.581Z,84.10
2017-07-20T00:25:24.086Z,84.40
2017-07-20T00:27:50.362Z,84.50
2017-07-20T00:30:16.649Z,84.50
2017-07-20T00:32:44.239Z,84.80
2017-07-20T00:35:10.482Z,84.80
2017-07-20T00:37:38.173Z,84.80
2017-07-20T00:40:06.109Z,84.80
2017-07-20T00:42:33.059Z,84.70
2017-07-20T00:45:00.004Z,85.00
2017-07-20T00:47:26.969Z,84.80
2017-07-20T00:49:53.197Z,84.70
2017-07-20T00:52:19.434Z,84.80
2017-07-20T00:54:46.267Z,84.60
2017-07-20T00:57:12.532Z,84.70
2017-07-20T00:59:38.762Z,85.00
2017-07-20T01:02:05.002Z,85.40
2017-07-20T01:04:31.268Z,85.20
2017-07-20T01:06:57.505Z,85.20
2017-07-20T01:09:23.880Z,85.10
2017-07-20T01:11:50.845Z,85.30
2017-07-20T01:14:17.073Z,85.30
2017-07-20T01:16:44.725Z,85.70
2017-07-20T01:19:10.953Z,85.60
2017-07-20T01:21:37.211Z,85.40
2017-07-20T01:24:04.177Z,84.90
2017-07-20T01:26:30.397Z,84.90
2017-07-20T01:28:57.357Z,85.20
2017-07-20T01:31:23.605Z,84.50
2017-07-20T01:33:49.841Z,84.60
2017-07-20T01:36:16.075Z,84.80
2017-07-20T01:38:43.874Z,84.70
2017-07-20T01:41:11.707Z,84.50
2017-07-20T01:43:37.929Z,84.50
2017-07-20T01:46:04.209Z,84.70
2017-07-20T01:48:30.438Z,84.50
2017-07-20T01:50:56.660Z,84.60
2017-07-20T01:53:22.888Z,84.70
2017-07-20T01:55:49.112Z,84.70
2017-07-20T01:58:15.339Z,84.30
2017-07-20T02:00:41.994Z,84.00
2017-07-20T02:03:08.489Z,83.70
2017-07-20T02:05:34.720Z,83.70
2017-07-20T02:08:00.972Z,83.60
2017-07-20T02:10:27.195Z,83.60
2017-07-20T02:12:53.445Z,83.00
2017-07-20T02:15:20.471Z,83.90
2017-07-20T02:17:46.697Z,83.60
2017-07-20T02:20:12.923Z,83.60
2017-07-20T02:22:40.036Z,83.50
2017-07-20T02:25:06.293Z,83.40
2017-07-20T02:27:32.514Z,83.50
2017-07-20T02:29:59.041Z,83.60
2017-07-20T02:32:26.002Z,83.40
2017-07-20T02:34:52.241Z,83.30
2017-07-20T02:37:18.521Z,83.30
2017-07-20T02:39:44.781Z,83.40
2017-07-20T02:42:11.928Z,83.50
2017-07-20T02:44:39.007Z,83.40
2017-07-20T02:47:05.244Z,83.40
2017-07-20T02:49:32.224Z,83.50
2017-07-20T02:51:58.509Z,83.20
2017-07-20T02:54:26.464Z,83.20
2017-07-20T02:56:52.691Z,83.20
2017-07-20T02:59:20.562Z,83.00
2017-07-20T03:01:46.786Z,82.80
2017-07-20T03:04:13.020Z,82.90
2017-07-20T03:06:40.648Z,82.70
2017-07-20T03:09:07.622Z,82.90
2017-07-20T03:11:33.837Z,82.80
2017-07-20T03:14:01.611Z,83.30
2017-07-20T03:16:27.840Z,83.20
2017-07-20T03:18:54.836Z,83.50
2017-07-20T03:21:21.105Z,83.50
2017-07-20T03:23:47.318Z,83.80
2017-07-20T03:26:13.531Z,83.90
2017-07-20T03:28:39.785Z,84.10
2017-07-20T03:31:06.005Z,83.80
2017-07-20T03:33:32.229Z,83.10
2017-07-20T03:35:58.513Z,82.60
2017-07-20T03:38:24.741Z,82.10
2017-07-20T03:40:54.015Z,81.90
2017-07-20T03:43:24.645Z,81.90
2017-07-20T03:45:50.896Z,82.10
2017-07-20T03:48:24.060Z,82.40
2017-07-20T03:50:51.264Z,82.30
2017-07-20T03:53:18.265Z,82.30
2017-07-20T03:55:44.521Z,82.30
2017-07-20T03:58:10.748Z,82.20
2017-07-20T04:00:36.973Z,82.00
2017-07-20T04:03:03.217Z,82.20
2017-07-20T04:05:29.479Z,82.00
2017-07-20T04:07:55.713Z,82.10
2017-07-20T04:10:23.593Z,82.40
2017-07-20T04:12:50.612Z,82.90
2017-07-20T04:15:16.853Z,82.90
2017-07-20T04:17:43.138Z,82.90
2017-07-20T04:20:10.109Z,82.80
2017-07-20T04:22:36.416Z,82.80
2017-07-20T04:25:02.682Z,82.80
2017-07-20T04:27:28.905Z,82.70
2017-07-20T04:29:55.877Z,82.40
2017-07-20T04:32:23.226Z,82.30
2017-07-20T04:34:49.490Z,82.50
2017-07-20T04:37:15.762Z,82.50
2017-07-20T04:39:42.742Z,83.50
2017-07-20T04:42:10.460Z,82.80
2017-07-20T04:44:37.633Z,83.30
2017-07-20T04:47:04.669Z,83.70
2017-07-20T04:49:30.934Z,82.90
2017-07-20T04:51:57.893Z,83.00
2017-07-20T04:54:25.749Z,83.10
2017-07-20T04:56:51.972Z,83.20
2017-07-20T04:59:18.233Z,82.90
2017-07-20T05:01:45.217Z,82.40
2017-07-20T05:04:11.482Z,82.30
2017-07-20T05:06:37.719Z,82.90
2017-07-20T05:09:04.190Z,82.80
2017-07-20T05:11:31.151Z,82.70
2017-07-20T05:13:58.116Z,82.40
2017-07-20T05:16:24.728Z,82.40
2017-07-20T05:18:50.980Z,82.20
2017-07-20T05:21:17.220Z,82.00
2017-07-20T05:23:43.481Z,82.50
2017-07-20T05:26:09.704Z,82.60
2017-07-20T05:28:35.929Z,82.50
2017-07-20T05:31:02.337Z,82.50
2017-07-20T05:33:29.312Z,83.10
2017-07-20T05:35:55.557Z,82.70
2017-07-20T05:38:22.781Z,82.40
2017-07-20T05:40:49.031Z,82.80
2017-07-20T05:43:16.697Z,82.90
2017-07-20T05:45:43.867Z,82.70
2017-07-20T05:48:17.061Z,82.10
2017-07-20T05:50:43.295Z,82.50
2017-07-20T05:53:09.545Z,82.30
2017-07-20T05:55:35.781Z,82.30
2017-07-20T05:58:02.892Z,81.80
2017-07-20T06:00:29.872Z,81.60
2017-07-20T06:02:56.097Z,81.50
2017-07-20T06:05:22.349Z,81.50
2017-07-20T06:07:48.581Z,81.30
2017-07-20T06:10:14.813Z,80.90
2017-07-20T06:12:41.320Z,80.60
2017-07-20T06:15:08.296Z,81.20
2017-07-20T06:17:34.528Z,81.30
2017-07-20T06:20:01.676Z,81.10
2017-07-20T06:22:28.636Z,81.40
2017-07-20T06:24:54.883Z,81.50
2017-07-20T06:27:21.121Z,81.10
2017-07-20T06:29:47.340Z,80.80
2017-07-20T06:32:13.567Z,80.70
2017-07-20T06:34:39.872Z,80.90
2017-07-20T06:37:06.864Z,81.90
2017-07-20T06:39:33.820Z,80.90
2017-07-20T06:42:00.552Z,80.80
2017-07-20T06:44:28.281Z,81.00
2017-07-20T06:46:55.467Z,81.30
2017-07-20T06:49:22.456Z,81.50
2017-07-20T06:51:48.700Z,81.40
2017-07-20T06:54:14.957Z,81.30
2017-07-20T06:56:41.213Z,81.20
2017-07-20T06:59:08.201Z,81.00
2017-07-20T07:01:34.433Z,81.00
2017-07-20T07:04:00.777Z,81.00
2017-07-20T07:06:27.006Z,81.20
2017-07-20T07:08:53.229Z,80.90
2017-07-20T07:11:20.327Z,80.80
2017-07-20T07:13:46.557Z,80.70
2017-07-20T07:16:12.770Z,80.70
2017-07-20T07:18:39.173Z,81.80
2017-07-20T07:21:06.153Z,79.80
2017-07-20T07:23:32.429Z,79.80
2017-07-20T07:25:58.723Z,79.50
2017-07-20T07:28:25.009Z,80.10
2017-07-20T07:30:51.238Z,80.40
2017-07-20T07:33:17.485Z,80.50
2017-07-20T07:35:43.769Z,79.60
2017-07-20T07:38:10.001Z,79.40
2017-07-20T07:40:36.409Z,79.40
2017-07-20T07:43:02.633Z,79.40
2017-07-20T07:45:30.266Z,79.90
2017-07-20T07:48:08.986Z,79.50
2017-07-20T07:50:35.210Z,80.00
2017-07-20T07:53:01.447Z,79.20
2017-07-20T07:55:27.704Z,79.90
2017-07-20T07:57:53.927Z,80.20
2017-07-20T08:00:20.181Z,79.30
2017-07-20T08:02:46.562Z,79.30
2017-07-20T08:05:12.858Z,79.10
2017-07-20T08:07:39.861Z,79.60
2017-07-20T08:10:06.902Z,79.50
2017-07-20T08:12:33.139Z,79.70
2017-07-20T08:14:59.423Z,79.40
2017-07-20T08:17:25.708Z,79.20
2017-07-20T08:19:51.978Z,79.50
2017-07-20T08:22:18.248Z,79.70
2017-07-20T08:24:44.504Z,80.10
2017-07-20T08:27:11.477Z,80.70
2017-07-20T08:29:37.704Z,80.70
2017-07-20T08:32:04.130Z,80.70
2017-07-20T08:34:31.101Z,80.60
2017-07-20T08:36:57.332Z,80.70
2017-07-20T08:39:23.590Z,80.90
2017-07-20T08:41:49.845Z,81.30
2017-07-20T08:44:16.066Z,81.50
2017-07-20T08:46:43.788Z,81.50
2017-07-20T08:49:21.678Z,82.10
2017-07-20T08:51:48.030Z,82.20
2017-07-20T08:54:14.260Z,81.90
2017-07-20T08:56:41.247Z,82.40
2017-07-20T08:59:07.516Z,82.30
2017-07-20T09:01:33.761Z,82.20
2017-07-20T09:03:59.977Z,82.10
2017-07-20T09:06:26.235Z,82.10
2017-07-20T09:08:53.218Z,81.90
2017-07-20T09:11:19.437Z,81.80
2017-07-20T09:13:46.481Z,81.90
2017-07-20T09:16:12.806Z,82.00
2017-07-20T17:02:46.733Z,77.00
2017-07-20T17:05:13.006Z,76.90
2017-07-20T17:07:40.035Z,78.20
2017-07-20T17:10:07.206Z,78.80
2017-07-20T17:12:34.173Z,78.70
2017-07-20T17:15:00.457Z,78.70
2017-07-20T17:17:26.829Z,78.00
2017-07-20T17:19:53.793Z,78.10
2017-07-20T17:22:20.031Z,78.10
2017-07-20T17:24:46.336Z,78.40
2017-07-20T17:27:13.329Z,77.80
2017-07-20T17:29:39.561Z,77.30
2017-07-20T17:32:05.820Z,77.00
2017-07-20T17:34:32.073Z,77.60
2017-07-20T17:36:58.324Z,77.60
2017-07-20T17:39:24.609Z,77.50
2017-07-20T17:41:50.858Z,77.50
2017-07-20T17:44:17.105Z,77.30
2017-07-20T17:46:51.157Z,77.50
2017-07-20T17:49:18.137Z,77.20
2017-07-20T17:51:44.388Z,77.10
2017-07-20T17:54:10.908Z,77.40
2017-07-20T17:56:37.157Z,77.70
2017-07-20T17:59:03.390Z,77.70
2017-07-20T18:01:30.113Z,77.60
2017-07-20T18:04:07.044Z,77.70
2017-07-20T18:06:34.778Z,77.80
2017-07-20T18:09:01.052Z,77.70
2017-07-20T18:11:27.296Z,77.70
2017-07-20T18:13:53.745Z,77.60
2017-07-20T18:16:20.043Z,77.80
2017-07-20T18:18:46.262Z,77.80
2017-07-20T18:21:13.387Z,77.60
2017-07-20T18:23:40.349Z,77.50
2017-07-20T18:26:07.319Z,77.40
2017-07-20T18:28:33.592Z,77.40
2017-07-20T18:30:59.817Z,77.40
2017-07-20T18:33:26.069Z,77.30
2017-07-20T18:35:53.081Z,77.20
2017-07-20T18:38:19.309Z,77.60
2017-07-20T18:40:45.546Z,77.30
2017-07-20T18:43:12.661Z,77.40
2017-07-20T18:45:39.637Z,77.30
2017-07-20T18:48:05.862Z,76.50
2017-07-20T18:50:32.116Z,76.70
2017-07-20T18:52:58.361Z,77.00
2017-07-20T18:55:24.589Z,77.30
2017-07-20T18:57:50.849Z,77.70
2017-07-20T19:00:17.181Z,78.00
2017-07-20T19:02:43.424Z,77.90
2017-07-20T19:05:11.065Z,78.00
2017-07-20T19:07:38.740Z,77.80
2017-07-20T19:10:04.973Z,77.80
2017-07-20T19:12:31.261Z,78.00
2017-07-20T19:14:58.499Z,78.30
2017-07-20T19:17:24.865Z,78.20
2017-07-20T19:19:51.897Z,78.50
2017-07-20T19:22:18.155Z,78.40
2017-07-20T19:24:45.166Z,78.80
2017-07-20T19:27:12.358Z,79.10
2017-07-20T19:29:38.629Z,78.90
2017-07-20T19:32:05.260Z,79.10
2017-07-20T19:34:31.773Z,79.60
2017-07-20T19:36:58.033Z,79.00
2017-07-20T19:39:24.296Z,79.10
2017-07-20T19:41:50.564Z,79.10
2017-07-20T19:44:16.812Z,79.30
2017-07-20T19:46:43.776Z,77.60
2017-07-20T19:49:10.032Z,77.40
2017-07-20T19:51:36.294Z,76.80
2017-07-20T19:54:02.553Z,74.80
2017-07-20T19:56:28.812Z,72.80
2017-07-20T19:58:55.105Z,72.60
2017-07-20T20:01:21.345Z,72.80
2017-07-20T20:03:48.132Z,72.40
2017-07-20T20:06:15.573Z,72.50
2017-07-20T20:08:43.229Z,72.70
2017-07-20T20:11:10.410Z,74.20
2017-07-20T20:13:37.370Z,74.70
2017-07-20T20:16:03.633Z,74.70
2017-07-20T20:18:29.900Z,76.00
2017-07-20T20:20:56.175Z,77.40
2017-07-20T20:23:23.133Z,79.90
2017-07-20T20:25:50.982Z,80.50
2017-07-20T20:28:17.213Z,80.40
2017-07-20T20:30:43.437Z,80.60
2017-07-20T20:33:09.700Z,79.80
2017-07-20T20:35:36.699Z,75.40
2017-07-20T20:38:02.940Z,75.20
2017-07-20T20:40:29.233Z,75.30
2017-07-20T20:42:55.464Z,76.30
2017-07-20T20:45:21.722Z,77.10
2017-07-20T20:47:48.844Z,77.20
2017-07-20T20:50:15.828Z,77.50
2017-07-20T20:52:42.045Z,78.00
2017-07-20T20:55:08.296Z,78.10
2017-07-20T20:57:34.552Z,78.70
2017-07-20T21:00:00.797Z,78.30
2017-07-20T21:02:27.269Z,78.70
2017-07-20T21:04:54.255Z,79.20
2017-07-20T21:07:20.949Z,79.10
2017-07-20T21:09:49.454Z,79.80
2017-07-20T21:12:16.432Z,80.20
2017-07-20T21:14:42.657Z,80.20
2017-07-20T21:17:09.087Z,81.00
2017-07-20T21:19:35.333Z,81.00
2017-07-20T21:22:01.618Z,81.00
2017-07-20T21:24:28.089Z,80.60
2017-07-20T21:26:55.056Z,79.80
2017-07-20T21:29:21.366Z,79.70
2017-07-20T21:31:48.717Z,79.40
2017-07-20T21:34:14.992Z,79.40
2017-07-20T21:36:41.225Z,79.30
2017-07-20T21:39:07.490Z,79.00
2017-07-20T21:41:33.727Z,78.90
2017-07-20T21:43:59.981Z,78.70
2017-07-20T21:46:26.238Z,78.80
2017-07-20T21:48:53.233Z,78.30
2017-07-20T21:51:19.504Z,78.20
2017-07-20T21:53:53.242Z,77.10
2017-07-20T21:56:20.203Z,78.30
2017-07-20T21:58:46.534Z,78.00
2017-07-20T22:01:12.800Z,78.50
2017-07-20T22:03:39.693Z,78.00
2017-07-20T22:06:06.709Z,79.80
2017-07-20T22:08:33.120Z,79.10
2017-07-20T22:11:00.823Z,79.60
2017-07-20T22:13:27.049Z,79.90
2017-07-20T22:15:53.362Z,80.00
2017-07-20T22:18:19.614Z,80.10
2017-07-20T22:20:45.896Z,80.30
2017-07-20T22:23:12.156Z,80.40
2017-07-20T22:25:39.145Z,80.90
2017-07-20T22:28:05.417Z,80.90
2017-07-20T22:30:32.597Z,81.30
2017-07-20T22:32:59.556Z,80.70
2017-07-20T22:35:25.788Z,80.60
2017-07-20T22:37:53.036Z,81.00
2017-07-20T22:40:20.041Z,80.70
2017-07-20T22:42:47.054Z,80.70
2017-07-20T22:45:13.312Z,80.70
2017-07-20T22:47:39.562Z,80.30
2017-07-20T22:50:05.793Z,80.50
2017-07-20T22:52:32.046Z,79.90
2017-07-20T22:54:58.276Z,79.90
2017-07-20T22:57:24.511Z,79.50
2017-07-20T22:59:50.822Z,78.70
2017-07-20T23:02:17.097Z,78.50
2017-07-20T23:04:43.313Z,78.40
2017-07-20T23:07:09.695Z,77.60
2017-07-20T23:09:47.884Z,77.50
2017-07-20T23:12:15.774Z,77.50
2017-07-20T23:14:42.028Z,77.50
2017-07-20T23:17:08.264Z,77.50
2017-07-20T23:19:34.819Z,77.50
2017-07-20T23:22:01.070Z,77.50
2017-07-20T23:24:27.296Z,77.60
2017-07-20T23:26:53.569Z,77.80
2017-07-20T23:29:19.804Z,77.90
2017-07-20T23:31:46.040Z,78.10
2017-07-20T23:34:12.276Z,78.20
2017-07-20T23:36:38.486Z,78.10
2017-07-20T23:39:04.709Z,78.10
2017-07-20T23:41:31.001Z,78.20
2017-07-20T23:43:57.273Z,78.10
2017-07-20T23:46:23.501Z,77.90
2017-07-20T23:48:49.782Z,77.90
2017-07-20T23:51:16.012Z,77.90
2017-07-20T23:53:42.236Z,77.90
2017-07-20T23:56:08.488Z,77.80
2017-07-20T23:58:34.719Z,77.90
